Latest Coastal Weather Observations for St Helens

IDT60701

Issued at 8:41 pm EST Wednesday 2 September 2015 (issued every 10 minutes, with the page automatically refreshed every 10 minutes)

About coastal observations | Map of coastal stations | Coastal observations for TAS | Marine services | Other Formats
Station Details ID: 092120 Name: ST HELENS AERODROME Lat: -41.34 Lon: 148.28 Height: 48.0 m
Data from the previous 72 hours. | See also: Recent months at St Helens
Date/Time
EST
Temp

°C
Wind Pressure Rain
since 9am
mm
Weather Cloud Vis
km
Sea
Height
m
Swell
Dir
 
Speed
knots
Gust
knots
hPa Trend Height
m
Period
s
Dir
02/08:30pm 9.2 WNW 7 9 1009.1 - 0.0 - - 10 - - - -
02/08:00pm 9.9 WNW 6 8 1008.8 - 0.0 - - 10 - - - -
02/07:30pm 10.0 NW 5 9 1008.8 - 0.0 - - 10 - - - -
02/07:00pm 10.2 W 4 8 1008.6 - 0.0 - - 10 - - - -
02/06:30pm 10.5 WSW 5 8 1008.6 - 0.0 - - 10 - - - -
02/06:00pm 11.3 NW 7 10 1008.6 - 0.0 - - 10 - - - -
02/05:30pm 12.4 NNW 7 10 1008.6 - 0.0 - - 10 - - - -
02/05:00pm 13.3 N 9 12 1008.5 - 0.0 - - 10 - - - -
02/04:30pm 13.7 N 9 15 1008.7 - 0.0 - - 10 - - - -
02/03:30pm 14.3 NNW 9 17 1008.9 - 0.0 - - 10 - - - -
02/03:00pm 15.3 NNW 8 12 1008.9 - 0.0 - - 10 - - - -
02/02:30pm 15.5 NNW 7 11 1008.9 - 0.0 - - 10 - - - -
02/02:00pm 16.0 N 8 11 1009.1 - 0.0 - - 10 - - - -
02/01:30pm 14.8 N 8 12 1009.7 - 0.0 - - 10 - - - -
02/01:00pm 14.3 N 8 13 1010.2 - 0.0 - - 10 - - - -
02/12:30pm 14.2 N 8 11 1010.7 - 0.0 - - 10 - - - -
02/12:00pm 14.8 NNW 7 11 1011.3 - 0.0 - - 10 - - - -
02/11:30am 13.2 N 8 11 1011.6 - 0.0 - - 10 - - - -
02/11:00am 12.2 NNW 5 7 1012.3 - 0.0 - - 10 - - - -
02/10:30am 11.6 WNW 5 8 1012.7 - 0.0 - - 10 - - - -
02/10:00am 10.3 WNW 4 6 1012.9 - 0.0 - - 10 - - - -
02/09:30am 8.6 WNW 3 5 1013.4 - 0.0 - - 10 - - - -
02/09:00am 7.5 NW 4 7 1013.6 - 0.0 Fine Partly cloudy 25 - - - -
02/08:30am 5.4 NNW 4 8 1013.7 - 0.0 - - 10 - - - -
02/08:00am 4.8 N 3 5 1013.7 - 0.0 - - 10 - - - -
02/07:30am 4.0 N 3 5 1013.7 - 0.0 - - 10 - - - -
02/07:00am 3.3 N 4 5 1013.6 - 0.0 - - 10 - - - -
02/06:30am 3.2 N 5 7 1013.5 - 0.0 - - 10 - - - -
02/06:00am 3.4 N 6 7 1013.5 - 0.0 - - 10 - - - -
02/05:30am 3.6 N 6 8 1013.5 - 0.0 - - 10 - - - -
02/05:00am 4.6 NW 5 8 1013.4 - 0.0 - - 10 - - - -
02/04:30am 4.1 NNW 4 5 1013.5 - 0.0 - - 10 - - - -
02/04:00am 4.6 NNW 7 9 1013.6 - 0.0 - - 10 - - - -
02/03:30am 4.4 NNW 4 6 1013.7 - 0.0 - - 10 - - - -
02/03:00am 5.3 NNW 5 7 1013.7 - 0.0 - - 10 - - - -
02/02:30am 5.7 NW 6 8 1013.9 - 0.0 - - 10 - - - -
02/02:00am 5.5 NNW 5 6 1014.2 - 0.0 - - 10 - - - -
02/01:30am 6.3 NNW 4 5 1014.1 - 0.0 - - 10 - - - -
02/01:00am 7.2 NNW 4 5 1014.3 - 0.0 - - 10 - - - -
02/12:30am 7.6 N 3 4 1014.5 - 0.0 - - 10 - - - -
02/12:00am 7.7 NW 3 4 1014.7 - 0.0 - Partly cloudy 10 - - - -
 
Date/Time
EST
Temp

°C
Wind Pressure Rain
since 9am
mm
Weather Cloud Vis
km
Sea
Height
m
Swell
Dir
 
Speed
knots
Gust
knots
hPa Trend Height
m
Period
s
Dir
01/11:30pm 8.3 NW 3 5 1014.7 - 0.0 - Partly cloudy 10 - - - -
01/11:00pm 9.3 NW 4 5 1014.7 - 0.0 - Cloudy 10 - - - -
01/10:30pm 9.6 CALM 0 0 1014.8 - 0.0 - Cloudy 10 - - - -
01/10:00pm 9.9 CALM 0 0 1014.8 - 0.0 - Partly cloudy 10 - - - -
01/09:30pm 10.3 NW 3 4 1014.7 - 0.0 - Partly cloudy 10 - - - -
01/09:00pm 10.3 CALM 0 0 1014.7 - 0.0 - Cloudy 10 - - - -
01/08:30pm 10.3 CALM 0 0 1014.3 - 0.0 - Partly cloudy 10 - - - -
01/08:00pm 10.6 CALM 0 2 1014.1 - 0.0 - Cloudy 10 - - - -
01/07:30pm 10.7 SE 3 5 1013.9 - 0.0 - Cloudy 10 - - - -
01/07:00pm 10.5 SE 3 5 1013.9 - 0.0 - Cloudy 10 - - - -
01/06:30pm 10.7 SE 1 3 1014.0 - 0.0 - Cloudy 10 - - - -
01/06:00pm 10.7 E 3 5 1013.8 - 0.0 - Cloudy 10 - - - -
01/05:00pm 11.0 SSE 6 8 1013.6 - 0.0 - Cloudy 10 - - - -
01/04:30pm 11.6 SSE 6 11 1013.5 - 0.0 - Partly cloudy 10 - - - -
01/04:00pm 11.3 SSE 6 11 1013.6 - 0.0 - Partly cloudy 10 - - - -
01/03:30pm 11.4 SSE 7 13 1013.6 - 0.0 - Cloudy 10 - - - -
01/03:00pm 11.6 SSE 10 16 1013.8 - 0.0 - Partly cloudy 10 - - - -
01/02:30pm 12.2 S 10 17 1013.6 - 0.0 - - 10 - - - -
01/02:00pm 12.0 S 11 18 1013.7 - 0.0 - - 10 - - - -
01/01:30pm 13.0 SSE 9 17 1013.8 - 0.0 - - 10 - - - -
01/01:00pm 13.3 S 9 18 1013.9 - 0.0 - - 10 - - - -
01/12:30pm 13.1 S 9 14 1014.2 - 0.0 - - 10 - - - -
01/12:00pm 12.4 SSE 8 14 1014.7 - 0.0 - - 10 - - - -
01/11:30am 13.2 SE 6 11 1014.9 - 0.0 - - 10 - - - -
01/11:00am 13.0 S 4 9 1015.0 - 0.0 - - 10 - - - -
01/10:30am 12.5 SE 5 10 1015.0 - 0.0 - - 10 - - - -
01/10:00am 11.9 SSW 7 11 1015.1 - 0.0 - - 10 - - - -
01/09:30am 11.5 SW 6 10 1015.3 - 0.0 - - 10 - - - -
01/09:00am 10.6 S 7 11 1015.5 - 0.0 Fine Partly cloudy 35 - - - -
01/08:30am 10.1 SSW 4 7 1015.4 - 0.0 - - 10 - - - -
01/08:00am 9.2 SSW 5 7 1015.4 - 0.0 - - 10 - - - -
01/07:30am 8.3 SW 4 6 1015.4 - 0.0 - - 10 - - - -
01/07:00am 7.0 SW 5 8 1015.3 - 0.0 - - 10 - - - -
01/06:30am 6.9 SW 5 8 1015.2 - 0.0 - - 10 - - - -
01/06:00am 7.0 SW 5 12 1015.2 - 0.0 - - 10 - - - -
01/05:30am 6.9 WSW 3 7 1015.1 - 0.0 - Partly cloudy 10 - - - -
01/05:00am 7.3 W 2 4 1015.1 - 0.0 - Partly cloudy 10 - - - -
01/04:30am 7.5 SW 3 6 1015.2 - 0.0 - - 10 - - - -
01/04:00am 7.9 SW 4 6 1015.2 - 0.0 - Cloudy 10 - - - -
01/03:30am 7.8 SSW 5 8 1015.1 - 0.0 - Partly cloudy 10 - - - -
01/03:00am 7.9 SW 4 6 1015.3 - 0.0 - Mostly cloudy 10 - - - -
01/02:30am 7.7 SW 5 7 1015.4 - 0.0 - Partly cloudy 10 - - - -
01/02:00am 7.9 SW 6 9 1015.8 - 0.0 - Partly cloudy 10 - - - -
01/01:30am 7.9 WSW 4 7 1016.1 - 0.0 - Partly cloudy 10 - - - -
01/01:00am 7.6 W 3 6 1016.3 - 0.0 - Partly cloudy 10 - - - -
01/12:30am 8.0 WSW 3 5 1016.4 - 0.0 - Partly cloudy 10 - - - -
01/12:00am 8.1 SSW 6 9 1016.5 - 0.0 - Mostly clear 10 - - - -
 
Date/Time
EST
Temp

°C
Wind Pressure Rain
since 9am
mm
Weather Cloud Vis
km
Sea
Height
m
Swell
Dir
 
Speed
knots
Gust
knots
hPa Trend Height
m
Period
s
Dir
31/11:30pm 8.6 SSW 7 9 1016.4 - 0.0 - - 10 - - - -
31/11:00pm 8.1 SSW 4 6 1016.6 - 0.0 - - 10 - - - -
31/10:30pm 8.5 SW 6 8 1017.0 - 0.0 - - 10 - - - -
31/10:00pm 8.9 S 7 9 1017.1 - 0.0 - - 10 - - - -
31/09:30pm 8.9 SSW 5 8 1017.3 - 0.0 - Partly cloudy 10 - - - -
31/09:00pm 9.4 S 6 11 1017.5 - 0.0 - Cloudy 10 - - - -
31/08:30pm 10.0 S 8 11 1017.5 - 0.0 - Partly cloudy 10 - - - -
31/08:00pm 10.5 S 8 12 1017.3 - 0.0 - Partly cloudy 10 - - - -
31/07:30pm 10.2 S 9 13 1017.4 - 0.0 - Partly cloudy 10 - - - -
31/07:00pm 10.3 S 8 14 1017.3 - 0.0 - Partly cloudy 10 - - - -
31/06:30pm 10.6 S 9 14 1017.2 - 0.0 - Partly cloudy 10 - - - -
31/06:00pm 10.8 S 7 13 1017.3 - 0.0 - Cloudy 10 - - - -
31/05:30pm 11.2 S 8 14 1017.1 - 0.0 - Partly cloudy 10 - - - -
31/05:00pm 11.6 S 8 13 1017.2 - 0.0 - Partly cloudy 10 - - - -
31/04:30pm 11.6 S 8 15 1017.1 - 0.0 - Partly cloudy 10 - - - -
31/04:00pm 11.6 SSE 9 16 1017.2 - 0.0 - Partly cloudy 10 - - - -
31/03:30pm 11.8 S 10 17 1017.0 - 0.0 - Partly cloudy 10 - - - -
31/03:00pm 12.7 SSE 9 17 1017.0 - 0.0 - Cloudy 10 - - - -
31/02:30pm 12.9 SSE 10 19 1017.1 - 0.0 - Partly cloudy 10 - - - -
31/02:00pm 12.4 SSE 10 17 1017.2 - 0.0 - Cloudy 10 - - - -
31/01:30pm 12.8 SSE 9 17 1017.5 - 0.0 - Partly cloudy 10 - - - -
31/01:00pm 12.4 S 10 16 1017.8 - 0.0 - Partly cloudy 10 - - - -
31/12:30pm 12.8 SSE 10 16 1018.1 - 0.0 - Partly cloudy 10 - - - -
31/12:00pm 12.3 SSE 10 16 1018.6 - 0.0 - Mostly clear 10 - - - -
31/11:30am 11.9 S 10 17 1019.0 - 0.0 - Partly cloudy 10 - - - -
31/11:00am 12.1 S 10 17 1019.2 - 0.0 - - 10 - - - -
31/10:30am 12.3 S 8 13 1019.4 - 0.0 - Partly cloudy 10 - - - -
31/10:00am 11.1 S 10 21 1019.7 - 0.0 - - 10 - - - -
31/09:30am 9.9 S 11 23 1019.9 - 0.0 - Partly cloudy 10 - - - -
31/09:00am 9.9 S 9 16 1020.3 - 0.0 Fine Mostly cloudy 25 - - - -
31/08:30am 9.2 S 10 16 1020.2 - 0.0 - Partly cloudy 10 - - - -
31/08:00am 8.4 S 7 13 1020.0 - 0.0 - Partly cloudy 10 - - - -
31/07:30am 8.0 SSW 9 15 1020.1 - 0.0 - Cloudy 10 - - - -
31/07:00am 7.8 S 7 11 1020.0 - 0.0 - Partly cloudy 10 - - - -
31/06:30am 7.6 SSW 6 11 1020.0 - 0.0 - Partly cloudy 10 - - - -
31/06:00am 7.7 SSW 6 11 1020.1 - 0.0 - Mostly cloudy 10 - - - -
31/05:30am 7.9 SSW 7 10 1020.0 - 0.0 - Cloudy 10 - - - -
31/05:00am 8.0 SSW 7 11 1020.0 - 0.0 - Partly cloudy 10 - - - -
31/04:30am 8.1 SSW 7 11 1020.1 - 0.0 - Partly cloudy 10 - - - -
31/04:00am 8.5 SSW 6 11 1020.1 - 0.0 - Partly cloudy 10 - - - -
31/03:30am 8.1 SSW 5 8 1020.2 - 0.0 - Partly cloudy 10 - - - -
31/03:00am 8.6 SSW 7 11 1020.6 - 0.0 - Cloudy 10 - - - -
31/02:30am 8.5 SSW 7 11 1020.6 - 0.0 - Cloudy 10 - - - -
31/02:00am 8.3 SSW 7 12 1021.0 - 0.0 - Cloudy 10 - - - -
31/01:30am 8.6 S 8 11 1021.3 - 0.0 - Cloudy 10 - - - -
31/01:00am 8.4 SSW 7 11 1021.4 - 0.0 - Partly cloudy 10 - - - -
31/12:30am 8.3 SSW 8 13 1021.5 - 0.0 - Cloudy 10 - - - -
31/12:00am 7.9 SSW 6 9 1021.5 - 0.0 - Partly cloudy 10 - - - -
 
Date/Time
EST
Temp

°C
Wind Pressure Rain
since 9am
mm
Weather Cloud Vis
km
Sea
Height
m
Swell
Dir
 
Speed
knots
Gust
knots
hPa Trend Height
m
Period
s
Dir
30/11:30pm 8.2 SSW 7 11 1021.5 - 0.0 - Partly cloudy 10 - - - -
30/11:00pm 8.2 SSW 7 10 1021.8 - 0.0 - Cloudy 10 - - - -
30/10:30pm 8.1 SSW 6 9 1021.9 - 0.0 - Partly cloudy 10 - - - -
30/10:00pm 8.7 SSW 8 13 1022.1 - 0.0 - Cloudy 10 - - - -
30/09:30pm 8.8 SSW 6 10 1022.2 - 0.0 - Partly cloudy 10 - - - -
30/09:00pm 9.1 SSW 7 11 1022.5 - 0.0 - Cloudy 10 - - - -

Other Formats:

Comma delimited format used in spreadsheet applications
http://www.bom.gov.au/fwo/IDT60701/IDT60701.95981.axf

JavaScript Object Notation format (JSON) in row-major order
http://www.bom.gov.au/fwo/IDT60701/IDT60701.95981.json